EDDG/FMO METAR and TAF weather

Enter ICAO airport designator
Station Type Date Time Source
EDDG METAR 2022/06/27 08:20 UTC NOAA

EDDG 270820Z 02003KT 300V110 9999 BKN013 17/14 Q1015 TEMPO SCT015


Station Type Date Time Source
EDDG Decoded METAR 2022/06/27 08:20 UTC NOAA

Muenster / Osnabrueck, Germany (EDDG) 52-08N 007-42E 53M
Jun 27, 2022 - 04:20 AM EDT / 2022.06.27 0820 UTC
Wind: from the NNE (020 degrees) at 3 MPH (3 KT) (direction variable):0
Visibility: greater than 7 mile(s):0
Sky conditions: mostly cloudy
Temperature: 62 F (17 C)
Dew Point: 57 F (14 C)
Relative Humidity: 82%
Pressure (altimeter): 29.97 in. Hg (1015 hPa)
ob: EDDG 270820Z 02003KT 300V110 9999 BKN013 17/14 Q1015 TEMPO SCT015
cycle: 8

Station Type Date Time Source
EDDG TAF 2022/06/27 07:37 UTC NOAA

TAF
AMD EDDG 270728Z 2707/2806 05006KT 9999 BKN012
BECMG 2708/2711 32006KT SCT020
BECMG 2711/2714 26007KT
BECMG 2719/2722 VRB02KT
BECMG 2800/2803 4000 BCFG PROB40
TEMPO 2801/2806 0500 FG

Example: see airport list